createdAt,value
2022-09-23T00:01:46.844Z,13.67
2022-09-23T00:06:45.047Z,11.97
2022-09-23T00:11:43.191Z,13.40
2022-09-23T00:16:42.731Z,12.63
2022-09-23T00:21:40.825Z,14.47
2022-09-23T00:26:38.760Z,14.00
2022-09-23T00:31:36.901Z,16.23
2022-09-23T00:36:36.296Z,13.70
2022-09-23T00:41:35.265Z,13.80
2022-09-23T00:46:36.797Z,12.10
2022-09-23T00:51:40.520Z,14.97
2022-09-23T00:56:40.386Z,17.20
2022-09-23T01:01:39.293Z,15.50
2022-09-23T01:06:38.841Z,12.43
2022-09-23T01:11:46.589Z,11.53
2022-09-23T01:16:52.641Z,11.73
2022-09-23T01:21:59.056Z,16.10
2022-09-23T01:27:13.743Z,17.67
2022-09-23T01:32:21.395Z,11.77
2022-09-23T01:37:28.623Z,13.83
2022-09-23T01:42:31.625Z,12.27
2022-09-23T01:47:36.346Z,12.70
2022-09-23T01:52:39.926Z,12.73
2022-09-23T01:57:42.584Z,15.70
2022-09-23T02:02:49.985Z,13.97
2022-09-23T02:07:53.681Z,20.60
2022-09-23T02:12:54.882Z,12.30
2022-09-23T02:17:59.847Z,15.13
2022-09-23T02:23:03.981Z,11.70
2022-09-23T02:28:10.291Z,13.27
2022-09-23T02:33:18.545Z,16.30
2022-09-23T02:38:21.498Z,11.97
2022-09-23T02:43:24.415Z,15.97
2022-09-23T02:48:27.877Z,12.70
2022-09-23T02:53:26.757Z,16.23
2022-09-23T02:58:31.102Z,13.70
2022-09-23T03:03:42.776Z,12.30
2022-09-23T03:08:50.457Z,13.00
2022-09-23T03:14:07.622Z,15.93
2022-09-23T03:19:21.538Z,13.17
2022-09-23T03:24:21.130Z,13.60
2022-09-23T03:29:20.743Z,15.07
2022-09-23T03:34:24.749Z,11.40
2022-09-23T03:39:32.486Z,13.50
2022-09-23T03:44:31.145Z,13.13
2022-09-23T03:49:35.021Z,10.60
2022-09-23T03:54:33.960Z,14.07
2022-09-23T03:59:32.393Z,13.00
2022-09-23T04:04:32.392Z,11.57
2022-09-23T04:09:30.856Z,14.30
2022-09-23T04:14:28.956Z,12.03
2022-09-23T04:19:27.021Z,15.00
2022-09-23T04:24:26.456Z,11.23
2022-09-23T04:29:25.874Z,11.53
2022-09-23T04:34:23.857Z,11.87
2022-09-23T04:39:21.888Z,13.40
2022-09-23T04:44:21.316Z,11.20
2022-09-23T04:49:19.504Z,15.93
2022-09-23T04:54:17.564Z,13.17
2022-09-23T04:59:15.642Z,14.57
2022-09-23T05:04:15.068Z,14.80
2022-09-23T05:09:16.828Z,17.53
2022-09-23T05:14:15.099Z,21.90
2022-09-23T05:19:14.543Z,20.93
2022-09-23T05:24:13.148Z,10.73
2022-09-23T05:29:12.722Z,13.33
2022-09-23T05:34:11.162Z,10.63
2022-09-23T05:39:10.586Z,12.20
2022-09-23T05:44:08.716Z,15.63
2022-09-23T05:49:07.298Z,10.93
2022-09-23T05:54:06.109Z,15.40
2022-09-23T05:59:06.879Z,12.60
2022-09-23T06:04:07.634Z,18.00
2022-09-23T06:09:06.532Z,16.00
2022-09-23T06:14:06.429Z,11.23
2022-09-23T06:19:07.066Z,14.47
2022-09-23T06:24:06.357Z,13.80
2022-09-23T06:29:10.075Z,15.30
2022-09-23T06:34:12.197Z,10.87
2022-09-23T06:39:10.933Z,12.00
2022-09-23T06:44:10.598Z,12.73
2022-09-23T06:49:09.596Z,12.63
2022-09-23T06:54:08.130Z,15.90
2022-09-23T06:59:06.382Z,8.40
2022-09-23T07:04:07.525Z,11.90
2022-09-23T07:09:06.769Z,12.87
2022-09-23T07:14:05.267Z,12.50
2022-09-23T07:19:05.706Z,8.20
2022-09-23T07:24:05.015Z,8.87
2022-09-23T07:29:05.524Z,10.83
2022-09-23T07:34:08.480Z,16.77
2022-09-23T07:39:06.621Z,11.97
2022-09-23T07:44:06.116Z,7.40
2022-09-23T07:49:06.579Z,6.70
2022-09-23T07:54:07.450Z,6.70
2022-09-23T07:59:05.911Z,6.50
2022-09-23T08:04:07.982Z,6.00
2022-09-23T08:09:06.043Z,5.60
2022-09-23T08:14:04.374Z,7.13
2022-09-23T08:19:02.717Z,15.57
2022-09-23T08:24:02.306Z,7.90
2022-09-23T08:29:00.258Z,9.50
2022-09-23T08:33:59.516Z,8.43
2022-09-23T08:38:57.483Z,5.40
2022-09-23T08:44:03.137Z,3.63
2022-09-23T08:49:02.289Z,4.60
2022-09-23T08:54:02.916Z,5.47
2022-09-23T08:59:08.425Z,4.40
2022-09-23T09:04:16.748Z,4.00
2022-09-23T09:09:23.353Z,5.03
2022-09-23T09:14:27.131Z,4.80
2022-09-23T09:19:47.621Z,3.40
2022-09-23T09:24:49.655Z,4.37
2022-09-23T09:29:53.567Z,3.73
2022-09-23T09:34:55.403Z,6.07
2022-09-23T09:39:53.344Z,3.03
2022-09-23T09:44:59.187Z,6.63
2022-09-23T09:50:04.268Z,2.80
2022-09-23T09:55:25.307Z,4.07
2022-09-23T10:00:44.147Z,3.13
2022-09-23T10:05:49.908Z,2.93
2022-09-23T10:10:54.809Z,2.03
2022-09-23T10:15:56.644Z,2.07
2022-09-23T10:21:02.455Z,1.77
2022-09-23T10:26:02.631Z,2.17
2022-09-23T10:31:09.970Z,2.63
2022-09-23T10:36:11.092Z,3.23
2022-09-23T10:41:37.186Z,3.77
2022-09-23T10:46:46.147Z,2.43
2022-09-23T10:51:54.168Z,1.40
2022-09-23T10:57:01.882Z,1.50
2022-09-23T11:02:14.878Z,2.70
2022-09-23T11:07:22.859Z,2.17
2022-09-23T11:12:39.511Z,1.63
2022-09-23T11:18:03.737Z,1.60
2022-09-23T11:23:37.280Z,2.53
2022-09-23T11:28:51.827Z,1.50
2022-09-23T11:34:05.344Z,1.77
2022-09-23T11:39:11.509Z,1.27
2022-09-23T11:44:16.871Z,1.30
2022-09-23T11:49:21.461Z,1.47
2022-09-23T11:54:24.400Z,1.50
2022-09-23T11:59:39.648Z,2.07
2022-09-23T12:04:53.799Z,1.57
2022-09-23T12:10:00.221Z,6.33
2022-09-23T12:15:05.549Z,1.67
2022-09-23T12:20:22.427Z,1.30
2022-09-23T12:25:35.536Z,9.20
2022-09-23T12:30:37.041Z,1.30
2022-09-23T12:35:42.263Z,4.33
2022-09-23T12:40:43.421Z,3.07
2022-09-23T12:45:41.962Z,2.17
2022-09-23T12:50:58.395Z,2.37
2022-09-23T12:55:56.413Z,1.87
2022-09-23T13:01:07.662Z,2.60
2022-09-23T13:06:26.935Z,1.57
2022-09-23T13:11:30.487Z,2.07
2022-09-23T13:16:33.822Z,3.40
2022-09-23T13:22:02.784Z,2.00
2022-09-23T13:27:12.054Z,3.30
2022-09-23T13:32:14.927Z,2.70
2022-09-23T13:37:22.448Z,2.33
2022-09-23T13:42:28.104Z,1.50
2022-09-23T13:47:28.176Z,1.43
2022-09-23T13:52:29.802Z,2.50
2022-09-23T13:57:29.558Z,2.00
2022-09-23T14:02:28.515Z,1.50
2022-09-23T14:07:28.457Z,1.97
2022-09-23T14:12:26.573Z,4.73
2022-09-23T14:17:24.778Z,3.07
2022-09-23T14:22:25.047Z,1.33
2022-09-23T14:27:29.248Z,3.37
2022-09-23T14:32:29.590Z,2.20
2022-09-23T14:37:48.961Z,3.57
2022-09-23T14:42:52.346Z,1.27
2022-09-23T14:47:52.754Z,1.10
2022-09-23T14:52:51.715Z,3.10
2022-09-23T14:58:03.257Z,3.37
2022-09-23T15:03:02.715Z,1.70
2022-09-23T15:08:03.798Z,1.23
2022-09-23T15:13:09.250Z,1.10
2022-09-23T15:18:15.551Z,2.27
2022-09-23T15:23:35.302Z,2.73
2022-09-23T15:28:34.641Z,1.47
2022-09-23T15:33:34.264Z,2.63
2022-09-23T15:38:32.954Z,4.30
2022-09-23T15:43:30.859Z,2.27
2022-09-23T15:48:32.602Z,6.73
2022-09-23T15:53:31.436Z,6.10
2022-09-23T15:58:29.510Z,4.10
2022-09-23T16:03:29.187Z,3.23
2022-09-23T16:08:28.662Z,2.30
2022-09-23T16:13:26.570Z,2.97
2022-09-23T16:18:24.480Z,5.37
2022-09-23T16:23:34.457Z,3.57
2022-09-23T16:28:34.250Z,5.20
2022-09-23T16:33:32.210Z,3.20
2022-09-23T16:38:30.483Z,2.97
2022-09-23T16:43:29.093Z,1.53
2022-09-23T16:48:28.390Z,3.00
2022-09-23T16:53:29.942Z,2.80
2022-09-23T16:58:27.860Z,2.00
2022-09-23T17:03:41.068Z,2.23
2022-09-23T17:08:41.645Z,2.20
2022-09-23T17:13:42.272Z,3.57
2022-09-23T17:18:40.253Z,2.33
2022-09-23T17:23:38.216Z,5.00
2022-09-23T17:28:37.648Z,3.83
2022-09-23T17:33:37.624Z,2.60
2022-09-23T17:38:35.806Z,3.90
2022-09-23T17:43:34.150Z,4.30
2022-09-23T17:48:34.835Z,4.10
2022-09-23T17:53:34.984Z,6.93
2022-09-23T17:58:34.823Z,4.70
2022-09-23T18:03:34.152Z,3.83
2022-09-23T18:08:32.090Z,4.67
2022-09-23T18:13:30.082Z,4.30
2022-09-23T18:18:27.982Z,8.37
2022-09-23T18:23:27.247Z,5.70
2022-09-23T18:28:25.282Z,8.47
2022-09-23T18:33:23.622Z,6.70
2022-09-23T18:38:21.597Z,6.07
2022-09-23T18:43:25.545Z,8.07
2022-09-23T18:48:37.694Z,7.40
2022-09-23T18:53:35.867Z,14.80
2022-09-23T18:58:35.282Z,7.87
2022-09-23T19:03:33.274Z,8.10
2022-09-23T19:08:32.102Z,8.60
2022-09-23T19:13:30.391Z,8.23
2022-09-23T19:18:29.878Z,7.17
2022-09-23T19:23:29.121Z,9.70
2022-09-23T19:28:27.021Z,7.97
2022-09-23T19:33:25.459Z,7.17
2022-09-23T19:38:24.662Z,8.23
2022-09-23T19:43:23.023Z,9.30
2022-09-23T19:48:20.943Z,7.57
2022-09-23T19:53:18.847Z,9.67
2022-09-23T19:58:18.247Z,8.40
2022-09-23T20:03:18.233Z,10.60
2022-09-23T20:08:16.134Z,8.20
2022-09-23T20:13:14.575Z,10.90
2022-09-23T20:18:13.818Z,9.60
2022-09-23T20:23:11.746Z,8.93
2022-09-23T20:28:09.654Z,8.67
2022-09-23T20:33:07.546Z,10.67
2022-09-23T20:38:08.156Z,9.40
2022-09-23T20:43:06.274Z,8.80
2022-09-23T20:48:05.881Z,12.77
2022-09-23T20:53:03.790Z,8.33
2022-09-23T20:58:03.500Z,7.93
2022-09-23T21:03:02.726Z,11.40
2022-09-23T21:08:03.129Z,10.87
2022-09-23T21:13:04.174Z,12.00
2022-09-23T21:18:02.075Z,14.23
2022-09-23T21:23:00.009Z,9.93
2022-09-23T21:27:58.845Z,10.67
2022-09-23T21:32:59.457Z,10.07
2022-09-23T21:37:57.354Z,9.47
2022-09-23T21:42:59.075Z,11.40
2022-09-23T21:47:58.375Z,11.17
2022-09-23T21:52:57.174Z,9.23
2022-09-23T21:57:55.157Z,10.07
2022-09-23T22:02:53.376Z,9.53
2022-09-23T22:07:54.247Z,10.23
2022-09-23T22:12:52.297Z,13.93
2022-09-23T22:17:50.544Z,9.87
2022-09-23T22:22:48.598Z,9.93
2022-09-23T22:28:01.881Z,8.67
2022-09-23T22:33:02.340Z,8.80
2022-09-23T22:38:01.051Z,9.07
2022-09-23T22:43:00.689Z,8.13
2022-09-23T22:47:58.772Z,15.13
2022-09-23T22:52:57.997Z,9.33
2022-09-23T22:57:56.206Z,7.80
2022-09-23T23:02:58.203Z,12.10
2022-09-23T23:07:56.140Z,9.00
2022-09-23T23:12:54.527Z,10.77
2022-09-23T23:17:59.215Z,9.40
2022-09-23T23:22:57.398Z,8.47
2022-09-23T23:27:55.942Z,9.30
2022-09-23T23:32:55.375Z,12.10
2022-09-23T23:37:53.342Z,12.40
2022-09-23T23:42:51.279Z,9.83
2022-09-23T23:47:49.364Z,9.63
2022-09-23T23:52:48.706Z,8.00
2022-09-23T23:57:46.638Z,7.60
